createdAt,value
2023-04-25T00:01:10.012Z,100.00
2023-04-25T00:03:41.756Z,100.00
2023-04-25T00:06:09.547Z,100.00
2023-04-25T00:08:37.202Z,100.00
2023-04-25T00:11:04.395Z,100.00
2023-04-25T00:13:31.839Z,100.00
2023-04-25T00:15:59.296Z,100.00
2023-04-25T00:18:29.839Z,100.00
2023-04-25T00:20:57.465Z,100.00
2023-04-25T00:23:25.055Z,100.00
2023-04-25T00:25:52.381Z,100.00
2023-04-25T00:28:20.028Z,100.00
2023-04-25T00:30:46.948Z,100.00
2023-04-25T00:33:14.164Z,100.00
2023-04-25T00:35:41.655Z,100.00
2023-04-25T00:38:08.900Z,100.00
2023-04-25T00:40:36.493Z,100.00
2023-04-25T00:43:03.827Z,100.00
2023-04-25T00:45:31.205Z,100.00
2023-04-25T00:47:58.709Z,100.00
2023-04-25T00:50:26.195Z,100.00
2023-04-25T00:52:53.562Z,100.00
2023-04-25T00:55:21.077Z,100.00
2023-04-25T00:57:48.674Z,100.00
2023-04-25T01:00:16.018Z,100.00
2023-04-25T01:02:43.814Z,100.00
2023-04-25T01:05:11.745Z,100.00
2023-04-25T01:07:39.345Z,100.00
2023-04-25T01:10:07.375Z,100.00
2023-04-25T01:12:35.023Z,100.00
2023-04-25T01:15:02.139Z,100.00
2023-04-25T01:17:30.370Z,100.00
2023-04-25T01:19:57.701Z,100.00
2023-04-25T01:22:25.355Z,100.00
2023-04-25T01:24:52.239Z,100.00
2023-04-25T01:27:19.566Z,100.00
2023-04-25T01:29:47.008Z,100.00
2023-04-25T01:32:14.948Z,100.00
2023-04-25T01:34:42.183Z,100.00
2023-04-25T01:37:09.313Z,100.00
2023-04-25T01:39:36.362Z,100.00
2023-04-25T01:42:03.922Z,100.00
2023-04-25T01:44:30.852Z,100.00
2023-04-25T01:46:58.052Z,100.00
2023-04-25T01:49:25.239Z,100.00
2023-04-25T01:51:52.588Z,100.00
2023-04-25T01:54:19.842Z,100.00
2023-04-25T01:56:52.301Z,100.00
2023-04-25T01:59:21.104Z,100.00
2023-04-25T02:01:48.495Z,100.00
2023-04-25T02:04:15.839Z,100.00
2023-04-25T02:06:43.458Z,100.00
2023-04-25T02:09:10.661Z,100.00
2023-04-25T02:11:37.908Z,100.00
2023-04-25T02:14:04.796Z,100.00
2023-04-25T02:16:32.241Z,100.00
2023-04-25T02:19:00.211Z,100.00
2023-04-25T02:21:27.701Z,100.00
2023-04-25T02:23:55.021Z,100.00
2023-04-25T02:26:22.564Z,100.00
2023-04-25T02:28:49.588Z,100.00
2023-04-25T02:31:17.108Z,100.00
2023-04-25T02:33:44.737Z,100.00
2023-04-25T02:36:12.123Z,100.00
2023-04-25T02:38:39.417Z,100.00
2023-04-25T02:41:06.695Z,100.00
2023-04-25T02:43:33.614Z,100.00
2023-04-25T02:46:01.083Z,100.00
2023-04-25T02:48:28.310Z,100.00
2023-04-25T02:50:55.571Z,100.00
2023-04-25T02:53:22.572Z,100.00
2023-04-25T02:55:50.283Z,100.00
2023-04-25T02:58:17.240Z,100.00
2023-04-25T03:00:44.755Z,100.00
2023-04-25T03:03:12.085Z,100.00
2023-04-25T03:05:39.528Z,100.00
2023-04-25T03:08:06.494Z,100.00
2023-04-25T03:10:34.252Z,100.00
2023-04-25T03:13:01.243Z,100.00
2023-04-25T03:15:28.498Z,100.00
2023-04-25T03:17:55.500Z,100.00
2023-04-25T03:20:22.987Z,100.00
2023-04-25T03:22:50.169Z,100.00
2023-04-25T03:25:17.676Z,100.00
2023-04-25T03:27:44.640Z,100.00
2023-04-25T03:30:12.232Z,100.00
2023-04-25T03:32:39.185Z,100.00
2023-04-25T03:35:06.674Z,100.00
2023-04-25T03:37:33.705Z,100.00
2023-04-25T03:40:01.208Z,100.00
2023-04-25T03:42:28.110Z,100.00
2023-04-25T03:44:55.850Z,100.00
2023-04-25T03:47:22.935Z,100.00
2023-04-25T03:49:52.858Z,100.00
2023-04-25T03:52:19.966Z,100.00
2023-04-25T03:54:47.445Z,100.00
2023-04-25T03:57:14.343Z,100.00
2023-04-25T03:59:41.739Z,100.00
2023-04-25T04:02:08.977Z,100.00
2023-04-25T04:04:36.995Z,100.00
2023-04-25T04:07:04.198Z,100.00
2023-04-25T04:09:32.107Z,100.00
2023-04-25T04:11:59.079Z,100.00
2023-04-25T04:14:26.490Z,100.00
2023-04-25T04:16:53.929Z,100.00
2023-04-25T04:19:21.517Z,100.00
2023-04-25T04:21:48.637Z,100.00
2023-04-25T04:24:17.944Z,100.00
2023-04-25T04:26:48.157Z,100.00
2023-04-25T04:29:22.229Z,100.00
2023-04-25T04:31:54.121Z,100.00
2023-04-25T04:34:21.682Z,100.00
2023-04-25T04:36:48.947Z,100.00
2023-04-25T04:39:16.606Z,100.00
2023-04-25T04:41:44.235Z,100.00
2023-04-25T04:44:11.889Z,100.00
2023-04-25T04:46:43.105Z,100.00
2023-04-25T04:49:11.696Z,100.00
2023-04-25T04:51:39.195Z,100.00
2023-04-25T04:54:06.598Z,100.00
2023-04-25T04:56:33.641Z,100.00
2023-04-25T04:59:01.303Z,100.00
2023-04-25T05:01:28.425Z,100.00
2023-04-25T05:04:01.636Z,100.00
2023-04-25T05:06:30.344Z,100.00
2023-04-25T05:08:57.926Z,100.00
2023-04-25T05:11:26.793Z,100.00
2023-04-25T05:13:54.737Z,100.00
2023-04-25T05:16:22.041Z,100.00
2023-04-25T05:18:49.312Z,100.00
2023-04-25T05:21:16.267Z,100.00
2023-04-25T05:23:43.689Z,100.00
2023-04-25T05:26:15.111Z,100.00
2023-04-25T05:28:43.082Z,100.00
2023-04-25T05:31:13.965Z,100.00
2023-04-25T05:33:41.557Z,100.00
2023-04-25T05:36:09.379Z,100.00
2023-04-25T05:38:36.523Z,100.00
2023-04-25T05:41:03.712Z,100.00
2023-04-25T05:43:31.216Z,100.00
2023-04-25T05:45:58.264Z,100.00
2023-04-25T05:48:25.970Z,100.00
2023-04-25T05:50:52.977Z,100.00
2023-04-25T05:53:20.976Z,100.00
2023-04-25T05:55:48.043Z,100.00
2023-04-25T05:58:15.177Z,100.00
2023-04-25T06:00:42.871Z,100.00
2023-04-25T06:03:16.474Z,100.00
2023-04-25T06:05:45.291Z,100.00
2023-04-25T06:08:12.575Z,100.00
2023-04-25T06:10:39.511Z,100.00
2023-04-25T06:13:06.770Z,100.00
2023-04-25T06:15:33.734Z,100.00
2023-04-25T06:18:01.310Z,100.00
2023-04-25T06:20:28.601Z,100.00
2023-04-25T06:22:56.098Z,100.00
2023-04-25T06:25:23.121Z,100.00
2023-04-25T06:27:50.405Z,100.00
2023-04-25T06:30:19.520Z,100.00
2023-04-25T06:32:46.977Z,100.00
2023-04-25T06:35:14.232Z,100.00
2023-04-25T06:37:41.694Z,100.00
2023-04-25T06:40:09.297Z,100.00
2023-04-25T06:42:37.125Z,100.00
2023-04-25T06:45:05.692Z,100.00
2023-04-25T06:47:33.195Z,100.00
2023-04-25T06:50:00.296Z,100.00
2023-04-25T06:52:27.540Z,100.00
2023-04-25T06:54:54.413Z,100.00
2023-04-25T06:57:22.190Z,100.00
2023-04-25T06:59:49.142Z,100.00
2023-04-25T07:02:16.819Z,100.00
2023-04-25T07:04:44.173Z,100.00
2023-04-25T07:07:11.452Z,100.00
2023-04-25T07:09:38.369Z,100.00
2023-04-25T07:12:06.085Z,100.00
2023-04-25T07:14:33.094Z,100.00
2023-04-25T07:17:00.670Z,100.00
2023-04-25T07:19:30.844Z,100.00
2023-04-25T07:21:58.166Z,100.00
2023-04-25T07:24:25.230Z,100.00
2023-04-25T07:26:52.909Z,98.27
2023-04-25T07:29:19.848Z,95.04
2023-04-25T07:31:47.402Z,89.16
2023-04-25T07:34:14.740Z,89.19
2023-04-25T07:36:42.168Z,89.32
2023-04-25T07:39:10.318Z,90.92
2023-04-25T07:41:37.816Z,93.16
2023-04-25T07:44:04.955Z,95.58
2023-04-25T07:46:32.371Z,96.13
2023-04-25T07:48:59.520Z,93.01
2023-04-25T07:51:27.161Z,86.44
2023-04-25T07:53:54.446Z,82.45
2023-04-25T07:56:23.062Z,82.65
2023-04-25T07:58:50.268Z,79.83
2023-04-25T08:01:17.890Z,78.91
2023-04-25T08:03:45.299Z,80.29
2023-04-25T08:06:13.277Z,81.14
2023-04-25T08:08:41.005Z,81.98
2023-04-25T08:11:08.270Z,81.09
2023-04-25T08:13:35.410Z,78.63
2023-04-25T08:16:02.837Z,77.21
2023-04-25T08:18:29.839Z,79.60
2023-04-25T08:20:57.182Z,81.17
2023-04-25T08:23:24.234Z,80.08
2023-04-25T08:25:51.498Z,75.27
2023-04-25T08:28:18.465Z,74.79
2023-04-25T08:30:45.690Z,74.19
2023-04-25T08:33:13.048Z,71.32
2023-04-25T08:35:40.410Z,71.24
2023-04-25T08:38:08.092Z,72.59
2023-04-25T08:40:39.332Z,72.99
2023-04-25T08:43:12.502Z,75.19
2023-04-25T08:45:44.471Z,71.12
2023-04-25T08:48:17.272Z,70.35
2023-04-25T08:50:51.721Z,67.96
2023-04-25T08:53:23.854Z,68.38
2023-04-25T08:55:51.552Z,68.23
2023-04-25T08:58:19.558Z,65.01
2023-04-25T09:00:48.398Z,61.84
2023-04-25T09:03:16.589Z,59.96
2023-04-25T09:05:47.291Z,60.36
2023-04-25T09:08:14.467Z,63.13
2023-04-25T09:10:41.886Z,65.96
2023-04-25T09:13:18.601Z,66.82
2023-04-25T09:15:57.028Z,64.89
2023-04-25T09:18:32.266Z,64.50
2023-04-25T09:21:13.076Z,60.28
2023-04-25T09:23:46.620Z,61.84
2023-04-25T09:26:18.664Z,64.60
2023-04-25T09:28:47.059Z,63.46
2023-04-25T09:31:25.996Z,62.72
2023-04-25T09:34:01.757Z,62.14
2023-04-25T09:36:31.257Z,65.87
2023-04-25T09:39:00.965Z,66.26
2023-04-25T09:41:28.476Z,66.65
2023-04-25T09:44:00.203Z,62.84
2023-04-25T09:46:34.945Z,61.86
2023-04-25T09:49:08.218Z,59.15
2023-04-25T09:51:35.588Z,62.33
2023-04-25T09:54:02.658Z,64.45
2023-04-25T09:56:32.478Z,64.20
2023-04-25T09:58:59.643Z,63.54
2023-04-25T10:01:27.559Z,62.47
2023-04-25T10:03:57.976Z,65.21
2023-04-25T10:06:26.713Z,64.65
2023-04-25T10:08:55.818Z,63.76
2023-04-25T10:11:24.696Z,61.38
2023-04-25T10:13:52.232Z,59.80
2023-04-25T10:16:20.251Z,56.26
2023-04-25T10:18:48.522Z,57.71
2023-04-25T10:21:17.624Z,56.90
2023-04-25T10:23:45.132Z,61.23
2023-04-25T10:26:15.710Z,57.97
2023-04-25T10:29:02.766Z,54.88
2023-04-25T10:31:33.647Z,57.11
2023-04-25T10:34:02.150Z,55.29
2023-04-25T10:36:32.809Z,52.58
2023-04-25T10:39:08.163Z,53.61
2023-04-25T10:41:49.354Z,54.04
2023-04-25T10:44:16.879Z,57.54
2023-04-25T10:46:45.785Z,58.67
2023-04-25T10:49:39.401Z,56.36
2023-04-25T10:52:26.169Z,58.76
2023-04-25T10:54:58.555Z,57.06
2023-04-25T10:57:40.795Z,54.71
2023-04-25T11:00:12.217Z,54.99
2023-04-25T11:02:48.918Z,54.20
2023-04-25T11:05:26.306Z,52.50
2023-04-25T11:08:07.177Z,55.62
2023-04-25T11:10:36.809Z,57.20
2023-04-25T11:13:04.393Z,57.96
2023-04-25T11:15:31.534Z,57.42
2023-04-25T11:18:27.293Z,56.06
2023-04-25T11:20:54.583Z,56.53
2023-04-25T11:23:21.851Z,58.53
2023-04-25T11:25:49.106Z,56.84
2023-04-25T11:28:23.626Z,55.15
2023-04-25T11:30:52.176Z,56.70
2023-04-25T11:33:24.732Z,56.62
2023-04-25T11:35:55.108Z,55.64
2023-04-25T11:38:24.786Z,56.99
2023-04-25T11:40:53.681Z,56.10
2023-04-25T11:43:27.140Z,56.51
2023-04-25T11:45:54.170Z,54.82
2023-04-25T11:48:24.272Z,56.55
2023-04-25T11:50:55.208Z,56.63
2023-04-25T11:53:22.983Z,57.29
2023-04-25T11:55:51.322Z,56.35
2023-04-25T11:58:20.696Z,56.99
2023-04-25T12:00:50.447Z,56.35
2023-04-25T12:03:19.415Z,56.24
2023-04-25T12:05:47.676Z,57.24
2023-04-25T12:08:16.535Z,57.48
2023-04-25T12:10:46.108Z,55.40
2023-04-25T12:13:24.628Z,55.48
2023-04-25T12:15:51.887Z,56.04
2023-04-25T12:18:25.100Z,56.61
2023-04-25T12:20:54.186Z,56.29
2023-04-25T12:23:31.947Z,58.20
2023-04-25T12:25:59.114Z,57.78
2023-04-25T12:28:30.224Z,56.47
2023-04-25T12:31:05.719Z,56.80
2023-04-25T12:33:40.807Z,58.34
2023-04-25T12:36:12.841Z,56.51
2023-04-25T12:38:42.410Z,56.68
2023-04-25T12:41:10.243Z,56.89
2023-04-25T12:43:37.558Z,57.15
2023-04-25T12:46:05.795Z,57.52
2023-04-25T12:48:33.179Z,59.11
2023-04-25T12:51:00.489Z,59.75
2023-04-25T12:53:34.465Z,60.20
2023-04-25T12:56:03.262Z,60.56
2023-04-25T12:58:30.693Z,60.57
2023-04-25T13:00:57.734Z,60.17
2023-04-25T13:03:25.908Z,60.64
2023-04-25T13:05:53.859Z,58.01
2023-04-25T13:08:21.176Z,55.95
2023-04-25T13:10:51.309Z,53.83
2023-04-25T13:13:18.825Z,57.36
2023-04-25T13:15:45.901Z,55.94
2023-04-25T13:18:13.651Z,55.10
2023-04-25T13:20:40.807Z,54.23
2023-04-25T13:23:08.187Z,55.70
2023-04-25T13:25:35.640Z,58.87
2023-04-25T13:28:03.404Z,57.88
2023-04-25T13:30:30.533Z,57.63
2023-04-25T13:32:58.504Z,58.51
2023-04-25T13:35:26.575Z,57.46
2023-04-25T13:37:53.918Z,57.30
2023-04-25T13:40:22.885Z,58.87
2023-04-25T13:42:52.257Z,57.99
2023-04-25T13:45:19.513Z,56.80
2023-04-25T13:47:49.996Z,54.95
2023-04-25T13:50:17.394Z,54.18
2023-04-25T13:52:44.918Z,52.86
2023-04-25T13:55:12.345Z,51.39
2023-04-25T13:57:41.237Z,51.10
2023-04-25T14:00:10.524Z,51.75
2023-04-25T14:02:38.117Z,52.82
2023-04-25T14:05:06.423Z,51.87
2023-04-25T14:07:36.148Z,52.46
2023-04-25T14:10:05.426Z,50.66
2023-04-25T14:12:34.111Z,49.23
2023-04-25T14:15:01.309Z,48.58
2023-04-25T14:17:29.158Z,49.29
2023-04-25T14:19:56.312Z,48.63
2023-04-25T14:22:23.701Z,50.21
2023-04-25T14:24:51.201Z,52.31
2023-04-25T14:27:18.511Z,51.21
2023-04-25T14:29:45.588Z,49.41
2023-04-25T14:32:13.272Z,51.98
2023-04-25T14:34:40.631Z,50.63
2023-04-25T14:37:07.910Z,47.77
2023-04-25T14:39:37.922Z,47.36
2023-04-25T14:42:05.282Z,49.01
2023-04-25T14:44:32.444Z,50.03
2023-04-25T14:47:00.378Z,51.37
2023-04-25T14:49:27.592Z,51.76
2023-04-25T14:51:54.926Z,52.11
2023-04-25T14:54:22.053Z,54.87
2023-04-25T14:56:49.416Z,54.10
2023-04-25T14:59:16.627Z,53.87
2023-04-25T15:01:44.032Z,53.01
2023-04-25T15:04:13.710Z,53.52
2023-04-25T15:06:41.232Z,57.97
2023-04-25T15:09:09.568Z,58.81
2023-04-25T15:11:37.344Z,58.10
2023-04-25T15:14:04.414Z,58.60
2023-04-25T15:16:32.637Z,59.37
2023-04-25T15:18:59.961Z,59.73
2023-04-25T15:21:27.742Z,59.83
2023-04-25T15:23:54.798Z,57.01
2023-04-25T15:26:22.644Z,57.62
2023-04-25T15:28:49.864Z,57.41
2023-04-25T15:31:17.540Z,56.75
2023-04-25T15:33:45.074Z,55.22
2023-04-25T15:36:12.688Z,55.35
2023-04-25T15:38:40.128Z,55.01
2023-04-25T15:41:07.467Z,55.38
2023-04-25T15:43:38.486Z,54.46
2023-04-25T15:46:07.324Z,55.60
2023-04-25T15:48:34.520Z,54.29
2023-04-25T15:51:03.169Z,57.04
2023-04-25T15:53:31.106Z,57.02
2023-04-25T15:55:58.532Z,59.80
2023-04-25T15:58:25.727Z,61.26
2023-04-25T16:00:53.859Z,61.51
2023-04-25T16:03:21.079Z,61.25
2023-04-25T16:05:48.409Z,62.36
2023-04-25T16:08:15.853Z,63.56
2023-04-25T16:10:43.209Z,64.01
2023-04-25T16:13:10.420Z,63.18
2023-04-25T16:15:38.352Z,62.32
2023-04-25T16:18:05.482Z,60.87
2023-04-25T16:20:33.151Z,62.15
2023-04-25T16:23:00.756Z,61.61
2023-04-25T16:25:28.594Z,61.01
2023-04-25T16:27:55.626Z,60.49
2023-04-25T16:30:23.389Z,60.64
2023-04-25T16:32:50.474Z,60.94
2023-04-25T16:35:18.036Z,61.99
2023-04-25T16:37:45.682Z,61.45
2023-04-25T16:40:13.321Z,62.64
2023-04-25T16:42:40.495Z,63.02
2023-04-25T16:45:08.578Z,64.43
2023-04-25T16:47:36.607Z,66.02
2023-04-25T16:50:04.580Z,66.34
2023-04-25T16:52:34.600Z,66.52
2023-04-25T16:55:02.086Z,67.11
2023-04-25T16:57:29.061Z,67.10
2023-04-25T16:59:56.896Z,67.32
2023-04-25T17:02:24.176Z,68.30
2023-04-25T17:04:54.878Z,69.00
2023-04-25T17:07:24.765Z,69.10
2023-04-25T17:09:52.269Z,69.18
2023-04-25T17:12:22.332Z,69.40
2023-04-25T17:14:50.984Z,68.88
2023-04-25T17:17:19.047Z,68.31
2023-04-25T17:19:46.755Z,68.60
2023-04-25T17:22:14.623Z,68.66
2023-04-25T17:24:42.356Z,67.96
2023-04-25T17:27:10.025Z,67.93
2023-04-25T17:29:37.694Z,68.21
2023-04-25T17:32:04.840Z,68.21
2023-04-25T17:34:32.389Z,68.52
2023-04-25T17:36:59.513Z,69.26
2023-04-25T17:39:26.913Z,70.21
2023-04-25T17:41:54.110Z,70.95
2023-04-25T17:44:21.545Z,71.63
2023-04-25T17:46:48.631Z,73.03
2023-04-25T17:49:16.186Z,72.88
2023-04-25T17:51:45.789Z,73.47
2023-04-25T17:54:13.228Z,73.83
2023-04-25T17:56:42.178Z,74.90
2023-04-25T17:59:10.118Z,73.40
2023-04-25T18:01:37.149Z,73.11
2023-04-25T18:04:04.654Z,73.03
2023-04-25T18:06:33.167Z,73.27
2023-04-25T18:09:02.275Z,73.38
2023-04-25T18:11:30.264Z,72.69
2023-04-25T18:13:57.858Z,72.76
2023-04-25T18:16:29.502Z,74.32
2023-04-25T18:19:05.570Z,73.94
2023-04-25T18:21:33.052Z,73.18
2023-04-25T18:24:01.587Z,72.01
2023-04-25T18:26:31.963Z,70.65
2023-04-25T18:28:59.402Z,69.66
2023-04-25T18:31:26.831Z,69.04
2023-04-25T18:33:58.008Z,69.39
2023-04-25T18:36:25.255Z,69.68
2023-04-25T18:38:56.534Z,69.89
2023-04-25T18:41:51.127Z,70.27
2023-04-25T18:44:13.037Z,70.93
2023-04-25T18:46:43.979Z,71.36
2023-04-25T18:49:11.338Z,71.49
2023-04-25T18:51:41.723Z,72.39
2023-04-25T18:54:11.662Z,72.52
2023-04-25T18:56:38.620Z,72.37
2023-04-25T18:59:05.906Z,73.05
2023-04-25T19:01:33.866Z,73.51
2023-04-25T19:04:05.941Z,74.13
2023-04-25T19:06:34.120Z,74.18
2023-04-25T19:09:02.658Z,74.72
2023-04-25T19:11:29.958Z,75.39
2023-04-25T19:13:57.268Z,75.42
2023-04-25T19:16:26.590Z,77.09
2023-04-25T19:18:55.535Z,76.28
2023-04-25T19:21:22.892Z,76.49
2023-04-25T19:23:50.674Z,76.11
2023-04-25T19:26:18.754Z,76.43
2023-04-25T19:28:46.085Z,77.62
2023-04-25T19:31:13.401Z,78.02
2023-04-25T19:33:41.347Z,78.95
2023-04-25T19:36:08.775Z,78.42
2023-04-25T19:38:36.386Z,78.47
2023-04-25T19:41:03.390Z,79.11
2023-04-25T19:43:31.919Z,78.77
2023-04-25T19:45:59.470Z,78.15
2023-04-25T19:48:26.775Z,78.43
2023-04-25T19:50:53.753Z,77.97
2023-04-25T19:53:21.221Z,79.04
2023-04-25T19:55:48.613Z,80.03
2023-04-25T19:58:16.689Z,80.19
2023-04-25T20:00:43.837Z,80.74
2023-04-25T20:03:12.336Z,80.32
2023-04-25T20:05:39.434Z,81.00
2023-04-25T20:08:06.852Z,82.02
2023-04-25T20:10:33.902Z,82.89
2023-04-25T20:13:01.546Z,83.87
2023-04-25T20:15:29.138Z,84.80
2023-04-25T20:17:56.433Z,85.00
2023-04-25T20:20:23.780Z,85.70
2023-04-25T20:22:51.854Z,86.59
2023-04-25T20:25:19.363Z,87.60
2023-04-25T20:27:46.630Z,88.55
2023-04-25T20:30:15.758Z,89.52
2023-04-25T20:32:43.308Z,90.57
2023-04-25T20:35:10.456Z,92.43
2023-04-25T20:37:37.982Z,92.89
2023-04-25T20:40:08.142Z,93.16
2023-04-25T20:42:36.518Z,93.57
2023-04-25T20:45:07.962Z,93.73
2023-04-25T20:47:35.594Z,92.32
2023-04-25T20:50:04.182Z,92.21
2023-04-25T20:52:32.807Z,91.56
2023-04-25T20:55:00.046Z,93.05
2023-04-25T20:57:27.552Z,93.57
2023-04-25T20:59:54.698Z,92.67
2023-04-25T21:02:22.127Z,93.03
2023-04-25T21:04:49.226Z,93.09
2023-04-25T21:07:17.193Z,93.92
2023-04-25T21:09:48.054Z,94.79
2023-04-25T21:12:15.423Z,95.14
2023-04-25T21:14:42.698Z,94.96
2023-04-25T21:17:10.108Z,96.24
2023-04-25T21:19:37.058Z,97.62
2023-04-25T21:22:04.716Z,97.80
2023-04-25T21:24:33.273Z,97.80
2023-04-25T21:27:01.308Z,97.71
2023-04-25T21:29:28.429Z,99.82
2023-04-25T21:31:56.921Z,100.00
2023-04-25T21:34:24.220Z,100.00
2023-04-25T21:36:51.662Z,100.00
2023-04-25T21:39:19.187Z,100.00
2023-04-25T21:41:46.645Z,100.00
2023-04-25T21:44:14.692Z,100.00
2023-04-25T21:46:42.001Z,100.00
2023-04-25T21:49:08.975Z,100.00
2023-04-25T21:51:36.503Z,100.00
2023-04-25T21:54:05.580Z,100.00
2023-04-25T21:56:33.233Z,100.00
2023-04-25T21:59:00.361Z,100.00
2023-04-25T22:01:28.630Z,100.00
2023-04-25T22:03:55.774Z,100.00
2023-04-25T22:06:23.346Z,100.00
2023-04-25T22:08:50.652Z,100.00
2023-04-25T22:11:18.058Z,100.00
2023-04-25T22:13:45.687Z,100.00
2023-04-25T22:16:13.002Z,100.00
2023-04-25T22:18:40.737Z,99.85
2023-04-25T22:21:08.980Z,100.00
2023-04-25T22:23:37.340Z,100.00
2023-04-25T22:26:05.263Z,100.00
2023-04-25T22:28:33.280Z,100.00
2023-04-25T22:31:00.545Z,100.00
2023-04-25T22:33:28.062Z,100.00
2023-04-25T22:35:55.658Z,100.00
2023-04-25T22:38:22.506Z,100.00
2023-04-25T22:40:50.068Z,100.00
2023-04-25T22:43:17.224Z,100.00
2023-04-25T22:45:44.642Z,100.00
2023-04-25T22:48:11.673Z,100.00
2023-04-25T22:50:40.977Z,100.00
2023-04-25T22:53:10.318Z,100.00
2023-04-25T22:55:37.622Z,100.00
2023-04-25T22:58:05.303Z,100.00
2023-04-25T23:00:34.524Z,100.00
2023-04-25T23:03:04.059Z,100.00
2023-04-25T23:05:33.128Z,100.00
2023-04-25T23:08:00.158Z,100.00
2023-04-25T23:10:28.462Z,100.00
2023-04-25T23:12:58.177Z,100.00
2023-04-25T23:15:31.111Z,100.00
2023-04-25T23:17:58.888Z,100.00
2023-04-25T23:20:26.749Z,100.00
2023-04-25T23:22:53.686Z,100.00
2023-04-25T23:25:21.613Z,100.00
2023-04-25T23:27:48.690Z,100.00
2023-04-25T23:30:16.302Z,100.00
2023-04-25T23:32:43.264Z,100.00
2023-04-25T23:35:10.786Z,100.00
2023-04-25T23:37:38.648Z,100.00
2023-04-25T23:40:12.885Z,100.00
2023-04-25T23:42:41.324Z,100.00
2023-04-25T23:45:09.183Z,100.00
2023-04-25T23:47:36.766Z,100.00
2023-04-25T23:50:04.787Z,100.00
2023-04-25T23:52:31.783Z,100.00
2023-04-25T23:54:59.084Z,100.00
2023-04-25T23:57:26.266Z,100.00
2023-04-25T23:59:53.578Z,100.00
